sensor_id;sensor_type;location;lat;lon;timestamp;temperature;humidity
5278;DHT22;2662;51.194;6.614;2023-05-10T00:02:14;15.60;99.90
5278;DHT22;2662;51.194;6.614;2023-05-10T00:04:42;15.70;99.90
5278;DHT22;2662;51.194;6.614;2023-05-10T00:07:12;15.60;99.90
5278;DHT22;2662;51.194;6.614;2023-05-10T00:09:40;15.70;99.90
5278;DHT22;2662;51.194;6.614;2023-05-10T00:12:07;15.70;99.90
5278;DHT22;2662;51.194;6.614;2023-05-10T00:14:35;15.70;99.90
5278;DHT22;2662;51.194;6.614;2023-05-10T00:17:03;15.70;99.90
5278;DHT22;2662;51.194;6.614;2023-05-10T00:19:30;15.70;99.90
5278;DHT22;2662;51.194;6.614;2023-05-10T00:21:57;15.70;99.90
5278;DHT22;2662;51.194;6.614;2023-05-10T00:24:27;15.70;99.90
5278;DHT22;2662;51.194;6.614;2023-05-10T00:26:55;15.70;99.90
5278;DHT22;2662;51.194;6.614;2023-05-10T00:29:23;15.70;99.90
5278;DHT22;2662;51.194;6.614;2023-05-10T00:31:52;15.60;99.90
5278;DHT22;2662;51.194;6.614;2023-05-10T00:34:19;15.60;99.90
5278;DHT22;2662;51.194;6.614;2023-05-10T00:36:46;15.50;99.90
5278;DHT22;2662;51.194;6.614;2023-05-10T00:39:14;15.40;99.90
5278;DHT22;2662;51.194;6.614;2023-05-10T00:41:43;15.40;99.90
5278;DHT22;2662;51.194;6.614;2023-05-10T00:44:11;15.30;99.90
5278;DHT22;2662;51.194;6.614;2023-05-10T00:46:39;15.30;99.90
5278;DHT22;2662;51.194;6.614;2023-05-10T00:49:08;15.30;99.90
5278;DHT22;2662;51.194;6.614;2023-05-10T00:51:37;15.20;99.90
5278;DHT22;2662;51.194;6.614;2023-05-10T00:54:05;15.10;99.90
5278;DHT22;2662;51.194;6.614;2023-05-10T00:56:34;15.10;99.90
5278;DHT22;2662;51.194;6.614;2023-05-10T00:59:03;15.10;99.90
5278;DHT22;2662;51.194;6.614;2023-05-10T01:01:33;15.10;99.90
5278;DHT22;2662;51.194;6.614;2023-05-10T01:04:02;15.10;99.90
5278;DHT22;2662;51.194;6.614;2023-05-10T01:06:30;15.00;99.90
5278;DHT22;2662;51.194;6.614;2023-05-10T01:08:58;15.10;99.90
5278;DHT22;2662;51.194;6.614;2023-05-10T01:11:26;15.10;99.90
5278;DHT22;2662;51.194;6.614;2023-05-10T01:13:56;15.10;99.90
5278;DHT22;2662;51.194;6.614;2023-05-10T01:16:27;15.10;99.90
5278;DHT22;2662;51.194;6.614;2023-05-10T01:18:57;15.10;99.90
5278;DHT22;2662;51.194;6.614;2023-05-10T01:21:37;15.10;99.90
5278;DHT22;2662;51.194;6.614;2023-05-10T01:30:55;15.10;99.90
5278;DHT22;2662;51.194;6.614;2023-05-10T01:33:38;15.10;99.90
5278;DHT22;2662;51.194;6.614;2023-05-10T01:36:14;15.20;99.90
5278;DHT22;2662;51.194;6.614;2023-05-10T01:38:47;15.10;99.90
5278;DHT22;2662;51.194;6.614;2023-05-10T01:41:20;15.10;99.90
5278;DHT22;2662;51.194;6.614;2023-05-10T01:43:55;15.20;99.90
5278;DHT22;2662;51.194;6.614;2023-05-10T01:46:31;15.30;99.90
5278;DHT22;2662;51.194;6.614;2023-05-10T01:49:03;15.30;99.90
5278;DHT22;2662;51.194;6.614;2023-05-10T01:51:50;15.30;99.90
5278;DHT22;2662;51.194;6.614;2023-05-10T01:54:21;15.30;99.90
5278;DHT22;2662;51.194;6.614;2023-05-10T01:56:55;15.30;99.90
5278;DHT22;2662;51.194;6.614;2023-05-10T01:59:29;15.20;99.90
5278;DHT22;2662;51.194;6.614;2023-05-10T02:01:58;15.20;99.90
5278;DHT22;2662;51.194;6.614;2023-05-10T02:04:28;15.30;99.90
5278;DHT22;2662;51.194;6.614;2023-05-10T02:06:56;15.30;99.90
5278;DHT22;2662;51.194;6.614;2023-05-10T02:09:25;15.30;99.90
5278;DHT22;2662;51.194;6.614;2023-05-10T02:11:55;15.30;99.90
5278;DHT22;2662;51.194;6.614;2023-05-10T02:14:24;15.30;99.90
5278;DHT22;2662;51.194;6.614;2023-05-10T02:16:54;15.20;99.90
5278;DHT22;2662;51.194;6.614;2023-05-10T02:19:23;15.30;99.90
5278;DHT22;2662;51.194;6.614;2023-05-10T02:21:55;15.30;99.90
5278;DHT22;2662;51.194;6.614;2023-05-10T02:24:25;15.40;99.90
5278;DHT22;2662;51.194;6.614;2023-05-10T02:26:54;15.40;99.90
5278;DHT22;2662;51.194;6.614;2023-05-10T02:29:25;15.40;99.90
5278;DHT22;2662;51.194;6.614;2023-05-10T02:31:53;15.40;99.90
5278;DHT22;2662;51.194;6.614;2023-05-10T02:34:22;15.40;99.90
5278;DHT22;2662;51.194;6.614;2023-05-10T02:36:52;15.40;99.90
5278;DHT22;2662;51.194;6.614;2023-05-10T02:39:21;15.40;99.90
5278;DHT22;2662;51.194;6.614;2023-05-10T02:41:49;15.50;99.90
5278;DHT22;2662;51.194;6.614;2023-05-10T02:44:19;15.40;99.90
5278;DHT22;2662;51.194;6.614;2023-05-10T02:46:47;15.40;99.90
5278;DHT22;2662;51.194;6.614;2023-05-10T02:49:15;15.40;99.90
5278;DHT22;2662;51.194;6.614;2023-05-10T02:51:47;15.40;99.90
5278;DHT22;2662;51.194;6.614;2023-05-10T02:54:20;15.30;99.90
5278;DHT22;2662;51.194;6.614;2023-05-10T02:56:55;15.30;99.90
5278;DHT22;2662;51.194;6.614;2023-05-10T02:59:25;15.30;99.90
5278;DHT22;2662;51.194;6.614;2023-05-10T03:01:54;15.30;99.90
5278;DHT22;2662;51.194;6.614;2023-05-10T03:04:22;15.30;99.90
5278;DHT22;2662;51.194;6.614;2023-05-10T03:06:50;15.30;99.90
5278;DHT22;2662;51.194;6.614;2023-05-10T03:09:21;15.30;99.90
5278;DHT22;2662;51.194;6.614;2023-05-10T03:11:55;15.20;99.90
5278;DHT22;2662;51.194;6.614;2023-05-10T03:14:36;15.10;99.90
5278;DHT22;2662;51.194;6.614;2023-05-10T03:17:11;15.10;99.90
5278;DHT22;2662;51.194;6.614;2023-05-10T03:19:47;15.10;99.90
5278;DHT22;2662;51.194;6.614;2023-05-10T03:22:24;15.10;99.90
5278;DHT22;2662;51.194;6.614;2023-05-10T03:24:57;15.20;99.90
5278;DHT22;2662;51.194;6.614;2023-05-10T03:27:26;15.20;99.90
5278;DHT22;2662;51.194;6.614;2023-05-10T03:29:56;15.30;99.90
5278;DHT22;2662;51.194;6.614;2023-05-10T03:32:24;15.30;99.90
5278;DHT22;2662;51.194;6.614;2023-05-10T03:34:53;15.40;99.90
5278;DHT22;2662;51.194;6.614;2023-05-10T03:37:20;15.40;99.90
5278;DHT22;2662;51.194;6.614;2023-05-10T03:39:49;15.40;99.90
5278;DHT22;2662;51.194;6.614;2023-05-10T03:42:19;15.40;99.90
5278;DHT22;2662;51.194;6.614;2023-05-10T03:44:47;15.40;99.90
5278;DHT22;2662;51.194;6.614;2023-05-10T03:47:16;15.40;99.90
5278;DHT22;2662;51.194;6.614;2023-05-10T03:49:43;15.50;99.90
5278;DHT22;2662;51.194;6.614;2023-05-10T03:52:10;15.50;99.90
5278;DHT22;2662;51.194;6.614;2023-05-10T03:54:37;15.50;99.90
5278;DHT22;2662;51.194;6.614;2023-05-10T03:57:04;15.50;99.90
5278;DHT22;2662;51.194;6.614;2023-05-10T03:59:32;15.50;99.90
5278;DHT22;2662;51.194;6.614;2023-05-10T04:01:59;15.50;99.90
5278;DHT22;2662;51.194;6.614;2023-05-10T04:04:29;15.50;99.90
5278;DHT22;2662;51.194;6.614;2023-05-10T04:06:55;15.50;99.90
5278;DHT22;2662;51.194;6.614;2023-05-10T04:09:22;15.50;99.90
5278;DHT22;2662;51.194;6.614;2023-05-10T04:11:49;15.40;99.90
5278;DHT22;2662;51.194;6.614;2023-05-10T04:14:16;15.40;99.90
5278;DHT22;2662;51.194;6.614;2023-05-10T04:16:44;15.40;99.90
5278;DHT22;2662;51.194;6.614;2023-05-10T04:19:11;15.40;99.90
5278;DHT22;2662;51.194;6.614;2023-05-10T04:21:38;15.40;99.90
5278;DHT22;2662;51.194;6.614;2023-05-10T04:24:05;15.40;99.90
5278;DHT22;2662;51.194;6.614;2023-05-10T04:26:32;15.40;99.90
5278;DHT22;2662;51.194;6.614;2023-05-10T04:28:59;15.40;99.90
5278;DHT22;2662;51.194;6.614;2023-05-10T04:31:25;15.40;99.90
5278;DHT22;2662;51.194;6.614;2023-05-10T04:33:54;15.40;99.90
5278;DHT22;2662;51.194;6.614;2023-05-10T04:36:21;15.40;99.90
5278;DHT22;2662;51.194;6.614;2023-05-10T04:38:48;15.40;99.90
5278;DHT22;2662;51.194;6.614;2023-05-10T04:41:15;15.40;99.90
5278;DHT22;2662;51.194;6.614;2023-05-10T04:43:41;15.40;99.90
5278;DHT22;2662;51.194;6.614;2023-05-10T04:46:08;15.50;99.90
5278;DHT22;2662;51.194;6.614;2023-05-10T04:48:35;15.40;99.90
5278;DHT22;2662;51.194;6.614;2023-05-10T04:51:03;15.40;99.90
5278;DHT22;2662;51.194;6.614;2023-05-10T04:53:32;15.40;99.90
5278;DHT22;2662;51.194;6.614;2023-05-10T04:56:00;15.50;99.90
5278;DHT22;2662;51.194;6.614;2023-05-10T04:58:28;15.50;99.90
5278;DHT22;2662;51.194;6.614;2023-05-10T05:00:56;15.70;99.90
5278;DHT22;2662;51.194;6.614;2023-05-10T05:03:24;15.80;99.90
5278;DHT22;2662;51.194;6.614;2023-05-10T05:05:52;15.80;99.90
5278;DHT22;2662;51.194;6.614;2023-05-10T05:08:21;15.80;99.90
5278;DHT22;2662;51.194;6.614;2023-05-10T05:10:50;15.70;99.90
5278;DHT22;2662;51.194;6.614;2023-05-10T05:13:18;15.70;99.90
5278;DHT22;2662;51.194;6.614;2023-05-10T05:15:46;15.60;99.90
5278;DHT22;2662;51.194;6.614;2023-05-10T05:18:15;15.60;99.90
5278;DHT22;2662;51.194;6.614;2023-05-10T05:20:42;15.60;99.90
5278;DHT22;2662;51.194;6.614;2023-05-10T05:23:10;15.50;99.90
5278;DHT22;2662;51.194;6.614;2023-05-10T05:25:40;15.40;99.90
5278;DHT22;2662;51.194;6.614;2023-05-10T05:28:08;15.40;99.90
5278;DHT22;2662;51.194;6.614;2023-05-10T05:30:35;15.30;99.90
5278;DHT22;2662;51.194;6.614;2023-05-10T05:33:04;15.40;99.90
5278;DHT22;2662;51.194;6.614;2023-05-10T05:35:33;15.50;99.90
5278;DHT22;2662;51.194;6.614;2023-05-10T05:38:00;15.50;99.90
5278;DHT22;2662;51.194;6.614;2023-05-10T05:40:29;15.40;99.90
5278;DHT22;2662;51.194;6.614;2023-05-10T05:43:00;15.50;99.90
5278;DHT22;2662;51.194;6.614;2023-05-10T05:45:28;15.50;99.90
5278;DHT22;2662;51.194;6.614;2023-05-10T05:47:55;15.40;99.90
5278;DHT22;2662;51.194;6.614;2023-05-10T05:50:23;15.40;99.90
5278;DHT22;2662;51.194;6.614;2023-05-10T05:52:50;15.40;99.90
5278;DHT22;2662;51.194;6.614;2023-05-10T05:55:20;15.40;99.90
5278;DHT22;2662;51.194;6.614;2023-05-10T05:57:48;15.30;99.90
5278;DHT22;2662;51.194;6.614;2023-05-10T06:00:18;15.30;99.90
5278;DHT22;2662;51.194;6.614;2023-05-10T06:02:47;15.20;99.90
5278;DHT22;2662;51.194;6.614;2023-05-10T06:05:15;15.30;99.90
5278;DHT22;2662;51.194;6.614;2023-05-10T06:07:42;15.30;99.90
5278;DHT22;2662;51.194;6.614;2023-05-10T06:10:10;15.30;99.90
5278;DHT22;2662;51.194;6.614;2023-05-10T06:12:39;15.20;99.90
5278;DHT22;2662;51.194;6.614;2023-05-10T06:15:09;15.20;99.90
5278;DHT22;2662;51.194;6.614;2023-05-10T06:17:38;15.30;99.90
5278;DHT22;2662;51.194;6.614;2023-05-10T06:20:08;15.30;99.90
5278;DHT22;2662;51.194;6.614;2023-05-10T06:22:35;15.40;99.90
5278;DHT22;2662;51.194;6.614;2023-05-10T06:25:03;15.40;99.90
5278;DHT22;2662;51.194;6.614;2023-05-10T06:27:30;15.50;99.90
5278;DHT22;2662;51.194;6.614;2023-05-10T06:29:57;15.50;99.90
5278;DHT22;2662;51.194;6.614;2023-05-10T06:32:25;15.70;99.90
5278;DHT22;2662;51.194;6.614;2023-05-10T06:34:55;15.80;99.90
5278;DHT22;2662;51.194;6.614;2023-05-10T06:37:23;15.90;99.90
5278;DHT22;2662;51.194;6.614;2023-05-10T06:39:51;16.00;99.90
5278;DHT22;2662;51.194;6.614;2023-05-10T06:42:18;16.20;99.90
5278;DHT22;2662;51.194;6.614;2023-05-10T06:44:46;16.50;99.90
5278;DHT22;2662;51.194;6.614;2023-05-10T06:47:13;16.60;99.90
5278;DHT22;2662;51.194;6.614;2023-05-10T06:49:41;16.90;99.90
5278;DHT22;2662;51.194;6.614;2023-05-10T06:52:11;17.10;99.90
5278;DHT22;2662;51.194;6.614;2023-05-10T06:54:38;17.10;99.90
5278;DHT22;2662;51.194;6.614;2023-05-10T06:57:06;17.10;99.90
5278;DHT22;2662;51.194;6.614;2023-05-10T06:59:33;17.20;99.90
5278;DHT22;2662;51.194;6.614;2023-05-10T07:02:01;17.30;99.90
5278;DHT22;2662;51.194;6.614;2023-05-10T07:04:29;17.10;99.90
5278;DHT22;2662;51.194;6.614;2023-05-10T07:06:56;17.10;99.90
5278;DHT22;2662;51.194;6.614;2023-05-10T07:09:25;16.90;99.90
5278;DHT22;2662;51.194;6.614;2023-05-10T07:11:53;16.90;99.90
5278;DHT22;2662;51.194;6.614;2023-05-10T07:14:21;16.80;99.90
5278;DHT22;2662;51.194;6.614;2023-05-10T07:16:48;16.70;99.90
5278;DHT22;2662;51.194;6.614;2023-05-10T07:19:16;16.60;99.90
5278;DHT22;2662;51.194;6.614;2023-05-10T07:21:42;16.40;99.90
5278;DHT22;2662;51.194;6.614;2023-05-10T07:24:10;16.30;99.90
5278;DHT22;2662;51.194;6.614;2023-05-10T07:26:38;16.20;99.90
5278;DHT22;2662;51.194;6.614;2023-05-10T07:29:06;16.20;99.90
5278;DHT22;2662;51.194;6.614;2023-05-10T07:31:33;16.20;99.90
5278;DHT22;2662;51.194;6.614;2023-05-10T07:34:00;16.20;99.90
5278;DHT22;2662;51.194;6.614;2023-05-10T07:36:28;16.10;99.90
5278;DHT22;2662;51.194;6.614;2023-05-10T07:38:55;16.20;99.90
5278;DHT22;2662;51.194;6.614;2023-05-10T07:41:23;16.30;99.90
5278;DHT22;2662;51.194;6.614;2023-05-10T07:43:52;16.40;99.90
5278;DHT22;2662;51.194;6.614;2023-05-10T07:46:20;16.60;99.90
5278;DHT22;2662;51.194;6.614;2023-05-10T07:48:47;16.80;99.90
5278;DHT22;2662;51.194;6.614;2023-05-10T07:51:15;16.90;99.90
5278;DHT22;2662;51.194;6.614;2023-05-10T07:53:43;17.20;99.90
5278;DHT22;2662;51.194;6.614;2023-05-10T07:56:23;17.40;99.90
5278;DHT22;2662;51.194;6.614;2023-05-10T07:58:54;17.50;99.90
5278;DHT22;2662;51.194;6.614;2023-05-10T08:01:22;17.50;99.90
5278;DHT22;2662;51.194;6.614;2023-05-10T08:03:49;17.60;99.90
5278;DHT22;2662;51.194;6.614;2023-05-10T08:06:19;17.70;99.90
5278;DHT22;2662;51.194;6.614;2023-05-10T08:08:47;17.80;99.90
5278;DHT22;2662;51.194;6.614;2023-05-10T08:11:16;17.90;99.90
5278;DHT22;2662;51.194;6.614;2023-05-10T08:13:44;17.90;99.90
5278;DHT22;2662;51.194;6.614;2023-05-10T08:16:14;17.90;99.90
5278;DHT22;2662;51.194;6.614;2023-05-10T08:18:42;17.80;99.90
5278;DHT22;2662;51.194;6.614;2023-05-10T08:21:11;17.60;99.90
5278;DHT22;2662;51.194;6.614;2023-05-10T08:23:39;17.70;99.90
5278;DHT22;2662;51.194;6.614;2023-05-10T08:26:07;17.80;99.90
5278;DHT22;2662;51.194;6.614;2023-05-10T08:28:35;18.00;99.90
5278;DHT22;2662;51.194;6.614;2023-05-10T08:31:04;18.20;99.90
5278;DHT22;2662;51.194;6.614;2023-05-10T08:33:33;18.30;99.90
5278;DHT22;2662;51.194;6.614;2023-05-10T08:36:01;18.50;99.90
5278;DHT22;2662;51.194;6.614;2023-05-10T08:38:28;18.60;99.90
5278;DHT22;2662;51.194;6.614;2023-05-10T08:40:56;18.70;99.90
5278;DHT22;2662;51.194;6.614;2023-05-10T08:43:27;18.90;99.90
5278;DHT22;2662;51.194;6.614;2023-05-10T08:45:55;18.80;99.90
5278;DHT22;2662;51.194;6.614;2023-05-10T08:48:24;18.90;99.90
5278;DHT22;2662;51.194;6.614;2023-05-10T08:50:54;19.00;99.90
5278;DHT22;2662;51.194;6.614;2023-05-10T08:53:24;19.10;99.90
5278;DHT22;2662;51.194;6.614;2023-05-10T08:55:54;19.40;99.90
5278;DHT22;2662;51.194;6.614;2023-05-10T08:58:23;19.40;99.90
5278;DHT22;2662;51.194;6.614;2023-05-10T09:00:50;19.10;99.90
5278;DHT22;2662;51.194;6.614;2023-05-10T09:03:19;19.10;99.90
5278;DHT22;2662;51.194;6.614;2023-05-10T09:05:49;18.90;99.90
5278;DHT22;2662;51.194;6.614;2023-05-10T09:08:18;18.70;99.90
5278;DHT22;2662;51.194;6.614;2023-05-10T09:10:47;18.60;99.90
5278;DHT22;2662;51.194;6.614;2023-05-10T09:13:15;18.40;99.90
5278;DHT22;2662;51.194;6.614;2023-05-10T09:15:45;18.40;99.90
5278;DHT22;2662;51.194;6.614;2023-05-10T09:18:13;18.50;99.90
5278;DHT22;2662;51.194;6.614;2023-05-10T09:20:41;18.40;99.90
5278;DHT22;2662;51.194;6.614;2023-05-10T09:23:09;18.50;99.90
5278;DHT22;2662;51.194;6.614;2023-05-10T09:25:41;18.60;99.90
5278;DHT22;2662;51.194;6.614;2023-05-10T09:28:10;18.70;99.90
5278;DHT22;2662;51.194;6.614;2023-05-10T09:30:38;18.90;99.90
5278;DHT22;2662;51.194;6.614;2023-05-10T09:33:06;19.00;99.90
5278;DHT22;2662;51.194;6.614;2023-05-10T09:35:34;18.90;99.90
5278;DHT22;2662;51.194;6.614;2023-05-10T09:38:04;19.00;99.90
5278;DHT22;2662;51.194;6.614;2023-05-10T09:40:32;19.10;99.90
5278;DHT22;2662;51.194;6.614;2023-05-10T09:43:03;19.10;99.90
5278;DHT22;2662;51.194;6.614;2023-05-10T09:45:33;19.10;99.90
5278;DHT22;2662;51.194;6.614;2023-05-10T09:48:01;19.20;99.90
5278;DHT22;2662;51.194;6.614;2023-05-10T09:50:30;19.10;99.90
5278;DHT22;2662;51.194;6.614;2023-05-10T09:53:01;18.80;99.90
5278;DHT22;2662;51.194;6.614;2023-05-10T09:55:39;19.00;99.90
5278;DHT22;2662;51.194;6.614;2023-05-10T09:58:08;19.10;99.90
5278;DHT22;2662;51.194;6.614;2023-05-10T10:00:38;19.30;99.90
5278;DHT22;2662;51.194;6.614;2023-05-10T10:03:06;19.50;99.90
5278;DHT22;2662;51.194;6.614;2023-05-10T10:05:41;19.60;99.90
5278;DHT22;2662;51.194;6.614;2023-05-10T10:08:10;19.70;99.90
5278;DHT22;2662;51.194;6.614;2023-05-10T10:10:38;19.90;99.90
5278;DHT22;2662;51.194;6.614;2023-05-10T10:13:08;20.10;99.90
5278;DHT22;2662;51.194;6.614;2023-05-10T10:15:36;20.50;99.90
5278;DHT22;2662;51.194;6.614;2023-05-10T10:18:05;20.60;99.90
5278;DHT22;2662;51.194;6.614;2023-05-10T10:20:33;20.60;99.90
5278;DHT22;2662;51.194;6.614;2023-05-10T10:23:00;20.50;99.90
5278;DHT22;2662;51.194;6.614;2023-05-10T10:25:28;20.60;99.90
5278;DHT22;2662;51.194;6.614;2023-05-10T10:28:11;20.40;99.90
5278;DHT22;2662;51.194;6.614;2023-05-10T10:30:45;20.40;99.90
5278;DHT22;2662;51.194;6.614;2023-05-10T10:33:36;20.10;99.90
5278;DHT22;2662;51.194;6.614;2023-05-10T10:36:07;19.70;99.90
5278;DHT22;2662;51.194;6.614;2023-05-10T10:41:30;19.10;99.90
5278;DHT22;2662;51.194;6.614;2023-05-10T10:44:38;18.80;99.90
5278;DHT22;2662;51.194;6.614;2023-05-10T10:47:22;18.60;99.90
5278;DHT22;2662;51.194;6.614;2023-05-10T10:49:52;18.50;99.90
5278;DHT22;2662;51.194;6.614;2023-05-10T10:52:31;18.40;99.90
5278;DHT22;2662;51.194;6.614;2023-05-10T10:55:02;18.50;99.90
5278;DHT22;2662;51.194;6.614;2023-05-10T10:57:44;18.70;99.90
5278;DHT22;2662;51.194;6.614;2023-05-10T11:00:25;19.00;99.90
5278;DHT22;2662;51.194;6.614;2023-05-10T11:02:57;19.10;99.90
5278;DHT22;2662;51.194;6.614;2023-05-10T11:05:46;19.30;99.90
5278;DHT22;2662;51.194;6.614;2023-05-10T11:08:18;19.50;99.90
5278;DHT22;2662;51.194;6.614;2023-05-10T11:11:04;19.70;99.90
5278;DHT22;2662;51.194;6.614;2023-05-10T11:13:34;20.10;99.90
5278;DHT22;2662;51.194;6.614;2023-05-10T11:16:28;20.30;99.90
5278;DHT22;2662;51.194;6.614;2023-05-10T11:19:02;20.20;99.90
5278;DHT22;2662;51.194;6.614;2023-05-10T11:21:30;20.20;99.90
5278;DHT22;2662;51.194;6.614;2023-05-10T11:23:59;20.00;99.90
5278;DHT22;2662;51.194;6.614;2023-05-10T11:26:32;19.80;99.90
5278;DHT22;2662;51.194;6.614;2023-05-10T11:29:01;20.00;99.90
5278;DHT22;2662;51.194;6.614;2023-05-10T11:31:32;20.30;99.90
5278;DHT22;2662;51.194;6.614;2023-05-10T11:34:00;20.50;99.90
5278;DHT22;2662;51.194;6.614;2023-05-10T11:36:33;20.50;99.90
5278;DHT22;2662;51.194;6.614;2023-05-10T11:39:02;20.40;99.90
5278;DHT22;2662;51.194;6.614;2023-05-10T11:41:31;20.30;99.90
5278;DHT22;2662;51.194;6.614;2023-05-10T11:43:59;20.40;99.90
5278;DHT22;2662;51.194;6.614;2023-05-10T11:46:27;20.40;99.90
5278;DHT22;2662;51.194;6.614;2023-05-10T11:48:58;20.50;99.90
5278;DHT22;2662;51.194;6.614;2023-05-10T11:51:29;20.40;99.90
5278;DHT22;2662;51.194;6.614;2023-05-10T11:53:59;20.50;99.90
5278;DHT22;2662;51.194;6.614;2023-05-10T11:56:26;20.40;99.90
5278;DHT22;2662;51.194;6.614;2023-05-10T11:58:55;20.20;99.90
5278;DHT22;2662;51.194;6.614;2023-05-10T12:01:23;20.00;99.90
5278;DHT22;2662;51.194;6.614;2023-05-10T12:03:54;19.60;99.90
5278;DHT22;2662;51.194;6.614;2023-05-10T12:06:26;19.40;99.90
5278;DHT22;2662;51.194;6.614;2023-05-10T12:08:54;19.30;99.90
5278;DHT22;2662;51.194;6.614;2023-05-10T12:11:25;19.30;99.90
5278;DHT22;2662;51.194;6.614;2023-05-10T12:13:53;19.30;99.90
5278;DHT22;2662;51.194;6.614;2023-05-10T12:16:22;19.40;99.90
5278;DHT22;2662;51.194;6.614;2023-05-10T12:18:50;19.60;99.90
5278;DHT22;2662;51.194;6.614;2023-05-10T12:21:19;19.70;99.90
5278;DHT22;2662;51.194;6.614;2023-05-10T12:23:50;20.10;99.90
5278;DHT22;2662;51.194;6.614;2023-05-10T12:26:18;20.30;99.90
5278;DHT22;2662;51.194;6.614;2023-05-10T12:28:48;20.30;99.90
5278;DHT22;2662;51.194;6.614;2023-05-10T12:31:16;20.60;99.90
5278;DHT22;2662;51.194;6.614;2023-05-10T12:33:44;20.90;99.90
5278;DHT22;2662;51.194;6.614;2023-05-10T12:36:14;21.00;99.90
5278;DHT22;2662;51.194;6.614;2023-05-10T12:38:43;21.10;99.90
5278;DHT22;2662;51.194;6.614;2023-05-10T12:41:15;21.20;99.90
5278;DHT22;2662;51.194;6.614;2023-05-10T12:43:44;21.40;99.90
5278;DHT22;2662;51.194;6.614;2023-05-10T12:46:14;21.60;99.90
5278;DHT22;2662;51.194;6.614;2023-05-10T12:48:42;22.00;99.90
5278;DHT22;2662;51.194;6.614;2023-05-10T12:51:10;22.00;99.90
5278;DHT22;2662;51.194;6.614;2023-05-10T12:53:38;21.90;99.90
5278;DHT22;2662;51.194;6.614;2023-05-10T12:56:06;21.90;99.90
5278;DHT22;2662;51.194;6.614;2023-05-10T12:58:35;21.90;99.90
5278;DHT22;2662;51.194;6.614;2023-05-10T13:01:03;21.90;99.90
5278;DHT22;2662;51.194;6.614;2023-05-10T13:03:30;21.80;99.90
5278;DHT22;2662;51.194;6.614;2023-05-10T13:05:57;21.60;99.90
5278;DHT22;2662;51.194;6.614;2023-05-10T13:08:24;21.60;99.90
5278;DHT22;2662;51.194;6.614;2023-05-10T13:10:52;21.50;99.90
5278;DHT22;2662;51.194;6.614;2023-05-10T13:13:19;21.50;99.90
5278;DHT22;2662;51.194;6.614;2023-05-10T13:15:47;21.70;99.90
5278;DHT22;2662;51.194;6.614;2023-05-10T13:18:14;21.80;99.90
5278;DHT22;2662;51.194;6.614;2023-05-10T13:20:41;21.80;99.90
5278;DHT22;2662;51.194;6.614;2023-05-10T13:23:09;21.90;99.90
5278;DHT22;2662;51.194;6.614;2023-05-10T13:25:36;21.90;99.90
5278;DHT22;2662;51.194;6.614;2023-05-10T13:28:03;21.60;99.90
5278;DHT22;2662;51.194;6.614;2023-05-10T13:30:30;21.60;99.90
5278;DHT22;2662;51.194;6.614;2023-05-10T13:32:58;21.70;99.90
5278;DHT22;2662;51.194;6.614;2023-05-10T13:35:25;21.60;99.90
5278;DHT22;2662;51.194;6.614;2023-05-10T13:37:51;21.50;99.90
5278;DHT22;2662;51.194;6.614;2023-05-10T13:40:22;21.40;99.90
5278;DHT22;2662;51.194;6.614;2023-05-10T13:42:49;21.10;99.90
5278;DHT22;2662;51.194;6.614;2023-05-10T13:45:15;21.00;99.90
5278;DHT22;2662;51.194;6.614;2023-05-10T13:47:42;20.80;99.90
5278;DHT22;2662;51.194;6.614;2023-05-10T13:50:11;20.80;99.90
5278;DHT22;2662;51.194;6.614;2023-05-10T13:52:40;20.70;99.90
5278;DHT22;2662;51.194;6.614;2023-05-10T13:55:07;20.70;99.90
5278;DHT22;2662;51.194;6.614;2023-05-10T13:57:35;20.70;99.90
5278;DHT22;2662;51.194;6.614;2023-05-10T14:00:04;20.70;99.90
5278;DHT22;2662;51.194;6.614;2023-05-10T14:02:33;20.90;99.90
5278;DHT22;2662;51.194;6.614;2023-05-10T14:05:00;21.00;99.90
5278;DHT22;2662;51.194;6.614;2023-05-10T14:07:29;21.20;99.90
5278;DHT22;2662;51.194;6.614;2023-05-10T14:09:56;21.30;99.90
5278;DHT22;2662;51.194;6.614;2023-05-10T14:12:23;21.60;99.90
5278;DHT22;2662;51.194;6.614;2023-05-10T14:14:50;21.80;99.90
5278;DHT22;2662;51.194;6.614;2023-05-10T14:17:18;21.90;99.90
5278;DHT22;2662;51.194;6.614;2023-05-10T14:19:46;21.90;99.90
5278;DHT22;2662;51.194;6.614;2023-05-10T14:22:13;21.80;99.90
5278;DHT22;2662;51.194;6.614;2023-05-10T14:24:43;21.80;99.90
5278;DHT22;2662;51.194;6.614;2023-05-10T14:27:13;21.60;99.90
5278;DHT22;2662;51.194;6.614;2023-05-10T14:29:41;21.50;99.90
5278;DHT22;2662;51.194;6.614;2023-05-10T14:32:09;21.40;99.90
5278;DHT22;2662;51.194;6.614;2023-05-10T14:34:36;21.20;99.90
5278;DHT22;2662;51.194;6.614;2023-05-10T14:37:04;21.10;99.90
5278;DHT22;2662;51.194;6.614;2023-05-10T14:39:32;21.00;99.90
5278;DHT22;2662;51.194;6.614;2023-05-10T14:42:01;21.00;99.90
5278;DHT22;2662;51.194;6.614;2023-05-10T14:44:29;21.10;99.90
5278;DHT22;2662;51.194;6.614;2023-05-10T14:46:57;21.00;99.90
5278;DHT22;2662;51.194;6.614;2023-05-10T14:49:24;21.00;99.90
5278;DHT22;2662;51.194;6.614;2023-05-10T14:51:52;21.10;99.90
5278;DHT22;2662;51.194;6.614;2023-05-10T14:54:20;21.20;99.90
5278;DHT22;2662;51.194;6.614;2023-05-10T14:56:48;21.30;99.90
5278;DHT22;2662;51.194;6.614;2023-05-10T14:59:17;21.50;99.90
5278;DHT22;2662;51.194;6.614;2023-05-10T15:01:45;21.70;99.90
5278;DHT22;2662;51.194;6.614;2023-05-10T15:04:14;21.70;99.90
5278;DHT22;2662;51.194;6.614;2023-05-10T15:06:42;21.80;99.90
5278;DHT22;2662;51.194;6.614;2023-05-10T15:09:09;21.90;99.90
5278;DHT22;2662;51.194;6.614;2023-05-10T15:11:37;22.00;99.90
5278;DHT22;2662;51.194;6.614;2023-05-10T15:14:04;21.90;99.90
5278;DHT22;2662;51.194;6.614;2023-05-10T15:16:33;21.90;99.90
5278;DHT22;2662;51.194;6.614;2023-05-10T15:19:01;22.00;99.90
5278;DHT22;2662;51.194;6.614;2023-05-10T15:21:29;21.80;99.90
5278;DHT22;2662;51.194;6.614;2023-05-10T15:24:00;21.80;99.90
5278;DHT22;2662;51.194;6.614;2023-05-10T15:26:28;21.60;99.90
5278;DHT22;2662;51.194;6.614;2023-05-10T15:28:55;21.60;99.90
5278;DHT22;2662;51.194;6.614;2023-05-10T15:31:23;21.40;99.90
5278;DHT22;2662;51.194;6.614;2023-05-10T15:33:52;21.30;99.90
5278;DHT22;2662;51.194;6.614;2023-05-10T15:36:24;21.20;99.90
5278;DHT22;2662;51.194;6.614;2023-05-10T15:38:53;21.20;99.90
5278;DHT22;2662;51.194;6.614;2023-05-10T15:41:21;21.20;99.90
5278;DHT22;2662;51.194;6.614;2023-05-10T15:43:49;21.10;99.90
5278;DHT22;2662;51.194;6.614;2023-05-10T15:46:17;21.10;99.90
5278;DHT22;2662;51.194;6.614;2023-05-10T15:48:44;21.10;99.90
5278;DHT22;2662;51.194;6.614;2023-05-10T15:51:14;21.20;99.90
5278;DHT22;2662;51.194;6.614;2023-05-10T15:53:43;21.30;99.90
5278;DHT22;2662;51.194;6.614;2023-05-10T15:56:11;21.20;99.90
5278;DHT22;2662;51.194;6.614;2023-05-10T15:58:40;21.20;99.90
5278;DHT22;2662;51.194;6.614;2023-05-10T16:01:09;21.30;99.90
5278;DHT22;2662;51.194;6.614;2023-05-10T16:03:36;21.20;99.90
5278;DHT22;2662;51.194;6.614;2023-05-10T16:06:04;21.20;99.90
5278;DHT22;2662;51.194;6.614;2023-05-10T16:08:32;21.20;99.90
5278;DHT22;2662;51.194;6.614;2023-05-10T16:10:59;21.20;99.90
5278;DHT22;2662;51.194;6.614;2023-05-10T16:13:27;21.20;99.90
5278;DHT22;2662;51.194;6.614;2023-05-10T16:15:54;21.00;99.90
5278;DHT22;2662;51.194;6.614;2023-05-10T16:18:22;20.50;99.90
5278;DHT22;2662;51.194;6.614;2023-05-10T16:20:48;20.20;99.90
5278;DHT22;2662;51.194;6.614;2023-05-10T16:23:15;19.90;99.90
5278;DHT22;2662;51.194;6.614;2023-05-10T16:25:43;19.50;99.90